Aviation Digital Data Service (ADDS)

Output produced by METARs form (2047 UTC 18 October 2018)
found at http://aviationweather.gov/metar/data/
 
KJQF 181950Z 01006KT 10SM CLR 18/02 A3039